sensor_id;sensor_type;location;lat;lon;timestamp;temperature;humidity
49829;DHT22;35723;51.194;5.112;2023-05-10T00:00:15;16.10;99.90
49829;DHT22;35723;51.194;5.112;2023-05-10T00:02:41;16.00;99.90
49829;DHT22;35723;51.194;5.112;2023-05-10T00:05:07;16.00;99.90
49829;DHT22;35723;51.194;5.112;2023-05-10T00:07:33;16.00;99.90
49829;DHT22;35723;51.194;5.112;2023-05-10T00:09:59;15.90;99.90
49829;DHT22;35723;51.194;5.112;2023-05-10T00:12:24;16.00;99.90
49829;DHT22;35723;51.194;5.112;2023-05-10T00:14:50;16.00;99.90
49829;DHT22;35723;51.194;5.112;2023-05-10T00:17:16;16.00;99.90
49829;DHT22;35723;51.194;5.112;2023-05-10T00:19:41;15.90;99.90
49829;DHT22;35723;51.194;5.112;2023-05-10T00:22:07;16.00;99.90
49829;DHT22;35723;51.194;5.112;2023-05-10T00:24:33;16.00;99.90
49829;DHT22;35723;51.194;5.112;2023-05-10T00:26:58;16.00;99.90
49829;DHT22;35723;51.194;5.112;2023-05-10T00:29:24;16.00;99.90
49829;DHT22;35723;51.194;5.112;2023-05-10T00:31:49;16.00;99.90
49829;DHT22;35723;51.194;5.112;2023-05-10T00:34:15;16.00;99.90
49829;DHT22;35723;51.194;5.112;2023-05-10T00:36:41;16.00;99.90
49829;DHT22;35723;51.194;5.112;2023-05-10T00:39:06;16.00;99.90
49829;DHT22;35723;51.194;5.112;2023-05-10T00:41:33;16.00;99.90
49829;DHT22;35723;51.194;5.112;2023-05-10T00:43:58;16.00;99.90
49829;DHT22;35723;51.194;5.112;2023-05-10T00:46:24;16.00;99.90
49829;DHT22;35723;51.194;5.112;2023-05-10T00:48:51;15.90;99.90
49829;DHT22;35723;51.194;5.112;2023-05-10T00:51:17;15.90;99.90
49829;DHT22;35723;51.194;5.112;2023-05-10T00:53:45;16.00;99.90
49829;DHT22;35723;51.194;5.112;2023-05-10T00:56:11;16.00;99.90
49829;DHT22;35723;51.194;5.112;2023-05-10T00:58:38;16.00;99.90
49829;DHT22;35723;51.194;5.112;2023-05-10T01:01:04;15.90;99.90
49829;DHT22;35723;51.194;5.112;2023-05-10T01:03:31;15.90;99.90
49829;DHT22;35723;51.194;5.112;2023-05-10T01:05:57;16.00;99.90
49829;DHT22;35723;51.194;5.112;2023-05-10T01:08:23;16.00;99.90
49829;DHT22;35723;51.194;5.112;2023-05-10T01:10:49;15.90;99.90
49829;DHT22;35723;51.194;5.112;2023-05-10T01:13:35;15.80;99.90
49829;DHT22;35723;51.194;5.112;2023-05-10T01:16:01;15.80;99.90
49829;DHT22;35723;51.194;5.112;2023-05-10T01:18:29;15.80;99.90
49829;DHT22;35723;51.194;5.112;2023-05-10T01:21:17;15.80;99.90
49829;DHT22;35723;51.194;5.112;2023-05-10T01:34:55;15.80;99.90
49829;DHT22;35723;51.194;5.112;2023-05-10T01:37:31;15.80;99.90
49829;DHT22;35723;51.194;5.112;2023-05-10T01:40:17;15.70;99.90
49829;DHT22;35723;51.194;5.112;2023-05-10T01:42:55;15.70;99.90
49829;DHT22;35723;51.194;5.112;2023-05-10T01:48:06;15.70;99.90
49829;DHT22;35723;51.194;5.112;2023-05-10T01:50:34;15.70;99.90
49829;DHT22;35723;51.194;5.112;2023-05-10T01:53:02;15.60;99.90
49829;DHT22;35723;51.194;5.112;2023-05-10T01:55:34;15.70;99.90
49829;DHT22;35723;51.194;5.112;2023-05-10T01:58:15;15.70;99.90
49829;DHT22;35723;51.194;5.112;2023-05-10T02:00:43;15.70;99.90
49829;DHT22;35723;51.194;5.112;2023-05-10T02:03:10;15.70;99.90
49829;DHT22;35723;51.194;5.112;2023-05-10T02:05:37;15.70;99.90
49829;DHT22;35723;51.194;5.112;2023-05-10T02:08:06;15.70;99.90
49829;DHT22;35723;51.194;5.112;2023-05-10T02:10:34;15.70;99.90
49829;DHT22;35723;51.194;5.112;2023-05-10T02:13:02;15.70;99.90
49829;DHT22;35723;51.194;5.112;2023-05-10T02:15:28;15.70;99.90
49829;DHT22;35723;51.194;5.112;2023-05-10T02:17:55;15.70;99.90
49829;DHT22;35723;51.194;5.112;2023-05-10T02:20:23;15.70;99.90
49829;DHT22;35723;51.194;5.112;2023-05-10T02:22:52;15.70;99.90
49829;DHT22;35723;51.194;5.112;2023-05-10T02:25:19;15.70;99.90
49829;DHT22;35723;51.194;5.112;2023-05-10T02:27:47;15.80;99.90
49829;DHT22;35723;51.194;5.112;2023-05-10T02:30:14;15.70;99.90
49829;DHT22;35723;51.194;5.112;2023-05-10T02:32:41;15.60;99.90
49829;DHT22;35723;51.194;5.112;2023-05-10T02:35:07;15.60;99.90
49829;DHT22;35723;51.194;5.112;2023-05-10T02:37:34;15.70;99.90
49829;DHT22;35723;51.194;5.112;2023-05-10T02:40:01;15.60;99.90
49829;DHT22;35723;51.194;5.112;2023-05-10T02:42:29;15.60;99.90
49829;DHT22;35723;51.194;5.112;2023-05-10T02:45:01;15.60;99.90
49829;DHT22;35723;51.194;5.112;2023-05-10T02:47:29;15.70;99.90
49829;DHT22;35723;51.194;5.112;2023-05-10T02:49:55;15.70;99.90
49829;DHT22;35723;51.194;5.112;2023-05-10T02:52:27;15.70;99.90
49829;DHT22;35723;51.194;5.112;2023-05-10T02:55:01;15.70;99.90
49829;DHT22;35723;51.194;5.112;2023-05-10T02:57:31;15.80;99.90
49829;DHT22;35723;51.194;5.112;2023-05-10T02:59:57;15.70;99.90
49829;DHT22;35723;51.194;5.112;2023-05-10T03:02:23;15.60;99.90
49829;DHT22;35723;51.194;5.112;2023-05-10T03:04:49;15.60;99.90
49829;DHT22;35723;51.194;5.112;2023-05-10T03:07:15;15.50;99.90
49829;DHT22;35723;51.194;5.112;2023-05-10T03:09:42;15.60;99.90
49829;DHT22;35723;51.194;5.112;2023-05-10T03:12:31;15.60;99.90
49829;DHT22;35723;51.194;5.112;2023-05-10T03:15:00;15.70;99.90
49829;DHT22;35723;51.194;5.112;2023-05-10T03:18:07;15.60;99.90
49829;DHT22;35723;51.194;5.112;2023-05-10T03:20:48;15.70;99.90
49829;DHT22;35723;51.194;5.112;2023-05-10T03:23:42;15.70;99.90
49829;DHT22;35723;51.194;5.112;2023-05-10T03:26:08;15.60;99.90
49829;DHT22;35723;51.194;5.112;2023-05-10T03:28:35;15.70;99.90
49829;DHT22;35723;51.194;5.112;2023-05-10T03:31:04;15.60;99.90
49829;DHT22;35723;51.194;5.112;2023-05-10T03:33:30;15.70;99.90
49829;DHT22;35723;51.194;5.112;2023-05-10T03:35:57;15.70;99.90
49829;DHT22;35723;51.194;5.112;2023-05-10T03:38:22;15.70;99.90
49829;DHT22;35723;51.194;5.112;2023-05-10T03:40:48;15.70;99.90
49829;DHT22;35723;51.194;5.112;2023-05-10T03:43:14;15.60;99.90
49829;DHT22;35723;51.194;5.112;2023-05-10T03:45:39;15.60;99.90
49829;DHT22;35723;51.194;5.112;2023-05-10T03:48:05;15.70;99.90
49829;DHT22;35723;51.194;5.112;2023-05-10T03:50:31;15.60;99.90
49829;DHT22;35723;51.194;5.112;2023-05-10T03:52:57;15.70;99.90
49829;DHT22;35723;51.194;5.112;2023-05-10T03:55:23;15.70;99.90
49829;DHT22;35723;51.194;5.112;2023-05-10T03:57:48;15.70;99.90
49829;DHT22;35723;51.194;5.112;2023-05-10T04:00:19;15.70;99.90
49829;DHT22;35723;51.194;5.112;2023-05-10T04:02:44;15.60;99.90
49829;DHT22;35723;51.194;5.112;2023-05-10T04:05:10;15.60;99.90
49829;DHT22;35723;51.194;5.112;2023-05-10T04:07:36;15.60;99.90
49829;DHT22;35723;51.194;5.112;2023-05-10T04:10:03;15.70;99.90
49829;DHT22;35723;51.194;5.112;2023-05-10T04:12:28;15.70;99.90
49829;DHT22;35723;51.194;5.112;2023-05-10T04:14:54;15.60;99.90
49829;DHT22;35723;51.194;5.112;2023-05-10T04:17:20;15.60;99.90
49829;DHT22;35723;51.194;5.112;2023-05-10T04:19:46;15.60;99.90
49829;DHT22;35723;51.194;5.112;2023-05-10T04:22:11;15.60;99.90
49829;DHT22;35723;51.194;5.112;2023-05-10T04:24:37;15.60;99.90
49829;DHT22;35723;51.194;5.112;2023-05-10T04:27:02;15.60;99.90
49829;DHT22;35723;51.194;5.112;2023-05-10T04:29:28;15.60;99.90
49829;DHT22;35723;51.194;5.112;2023-05-10T04:31:54;15.60;99.90
49829;DHT22;35723;51.194;5.112;2023-05-10T04:34:20;15.60;99.90
49829;DHT22;35723;51.194;5.112;2023-05-10T04:36:46;15.60;99.90
49829;DHT22;35723;51.194;5.112;2023-05-10T04:39:12;15.70;99.90
49829;DHT22;35723;51.194;5.112;2023-05-10T04:41:39;15.70;99.90
49829;DHT22;35723;51.194;5.112;2023-05-10T04:44:05;15.70;99.90
49829;DHT22;35723;51.194;5.112;2023-05-10T04:46:30;15.60;99.90
49829;DHT22;35723;51.194;5.112;2023-05-10T04:48:56;15.60;99.90
49829;DHT22;35723;51.194;5.112;2023-05-10T04:51:22;15.60;99.90
49829;DHT22;35723;51.194;5.112;2023-05-10T04:53:47;15.60;99.90
49829;DHT22;35723;51.194;5.112;2023-05-10T04:56:13;15.50;99.90
49829;DHT22;35723;51.194;5.112;2023-05-10T04:58:38;15.50;99.90
49829;DHT22;35723;51.194;5.112;2023-05-10T05:01:05;15.60;99.90
49829;DHT22;35723;51.194;5.112;2023-05-10T05:03:32;15.60;99.90
49829;DHT22;35723;51.194;5.112;2023-05-10T05:05:58;15.60;99.90
49829;DHT22;35723;51.194;5.112;2023-05-10T05:08:23;15.60;99.90
49829;DHT22;35723;51.194;5.112;2023-05-10T05:10:49;15.60;99.90
49829;DHT22;35723;51.194;5.112;2023-05-10T05:13:15;15.60;99.90
49829;DHT22;35723;51.194;5.112;2023-05-10T05:15:41;15.60;99.90
49829;DHT22;35723;51.194;5.112;2023-05-10T05:18:06;15.60;99.90
49829;DHT22;35723;51.194;5.112;2023-05-10T05:20:33;15.60;99.90
49829;DHT22;35723;51.194;5.112;2023-05-10T05:22:59;15.60;99.90
49829;DHT22;35723;51.194;5.112;2023-05-10T05:25:25;15.60;99.90
49829;DHT22;35723;51.194;5.112;2023-05-10T05:27:50;15.60;99.90
49829;DHT22;35723;51.194;5.112;2023-05-10T05:30:16;15.60;99.90
49829;DHT22;35723;51.194;5.112;2023-05-10T05:32:42;15.60;99.90
49829;DHT22;35723;51.194;5.112;2023-05-10T05:35:08;15.60;99.90
49829;DHT22;35723;51.194;5.112;2023-05-10T05:37:33;15.60;99.90
49829;DHT22;35723;51.194;5.112;2023-05-10T05:39:59;15.60;99.90
49829;DHT22;35723;51.194;5.112;2023-05-10T05:42:27;15.60;99.90
49829;DHT22;35723;51.194;5.112;2023-05-10T05:44:52;15.60;99.90
49829;DHT22;35723;51.194;5.112;2023-05-10T05:47:18;15.60;99.90
49829;DHT22;35723;51.194;5.112;2023-05-10T05:49:44;15.60;99.90
49829;DHT22;35723;51.194;5.112;2023-05-10T05:52:12;15.60;99.90
49829;DHT22;35723;51.194;5.112;2023-05-10T05:54:38;15.70;99.90
49829;DHT22;35723;51.194;5.112;2023-05-10T05:57:04;15.60;99.90
49829;DHT22;35723;51.194;5.112;2023-05-10T05:59:29;15.60;99.90
49829;DHT22;35723;51.194;5.112;2023-05-10T06:01:55;15.60;99.90
49829;DHT22;35723;51.194;5.112;2023-05-10T06:04:21;15.60;99.90
49829;DHT22;35723;51.194;5.112;2023-05-10T06:06:47;15.60;99.90
49829;DHT22;35723;51.194;5.112;2023-05-10T06:09:12;15.60;99.90
49829;DHT22;35723;51.194;5.112;2023-05-10T06:11:38;15.60;99.90
49829;DHT22;35723;51.194;5.112;2023-05-10T06:14:04;15.70;99.90
49829;DHT22;35723;51.194;5.112;2023-05-10T06:16:32;15.70;99.90
49829;DHT22;35723;51.194;5.112;2023-05-10T06:18:58;15.70;99.90
49829;DHT22;35723;51.194;5.112;2023-05-10T06:21:23;15.70;99.90
49829;DHT22;35723;51.194;5.112;2023-05-10T06:23:49;15.70;99.90
49829;DHT22;35723;51.194;5.112;2023-05-10T06:26:15;15.70;99.90
49829;DHT22;35723;51.194;5.112;2023-05-10T06:28:40;15.70;99.90
49829;DHT22;35723;51.194;5.112;2023-05-10T06:31:06;15.70;99.90
49829;DHT22;35723;51.194;5.112;2023-05-10T06:33:33;15.80;99.90
49829;DHT22;35723;51.194;5.112;2023-05-10T06:35:58;15.70;99.90
49829;DHT22;35723;51.194;5.112;2023-05-10T06:38:24;15.80;99.90
49829;DHT22;35723;51.194;5.112;2023-05-10T06:40:50;15.80;99.90
49829;DHT22;35723;51.194;5.112;2023-05-10T06:43:16;15.80;99.90
49829;DHT22;35723;51.194;5.112;2023-05-10T06:45:41;15.80;99.90
49829;DHT22;35723;51.194;5.112;2023-05-10T06:48:07;15.80;99.90
49829;DHT22;35723;51.194;5.112;2023-05-10T06:50:33;15.80;99.90
49829;DHT22;35723;51.194;5.112;2023-05-10T06:53:00;15.80;99.90
49829;DHT22;35723;51.194;5.112;2023-05-10T06:55:25;15.80;99.90
49829;DHT22;35723;51.194;5.112;2023-05-10T06:57:52;15.80;99.90
49829;DHT22;35723;51.194;5.112;2023-05-10T07:00:18;15.80;99.90
49829;DHT22;35723;51.194;5.112;2023-05-10T07:02:44;15.80;99.90
49829;DHT22;35723;51.194;5.112;2023-05-10T07:05:10;15.80;99.90
49829;DHT22;35723;51.194;5.112;2023-05-10T07:07:37;15.80;99.90
49829;DHT22;35723;51.194;5.112;2023-05-10T07:10:02;15.90;99.90
49829;DHT22;35723;51.194;5.112;2023-05-10T07:12:28;15.80;99.90
49829;DHT22;35723;51.194;5.112;2023-05-10T07:14:54;15.80;99.90
49829;DHT22;35723;51.194;5.112;2023-05-10T07:17:19;15.90;99.90
49829;DHT22;35723;51.194;5.112;2023-05-10T07:19:45;15.80;99.90
49829;DHT22;35723;51.194;5.112;2023-05-10T07:22:11;15.80;99.90
49829;DHT22;35723;51.194;5.112;2023-05-10T07:24:36;15.80;99.90
49829;DHT22;35723;51.194;5.112;2023-05-10T07:27:02;15.70;99.90
49829;DHT22;35723;51.194;5.112;2023-05-10T07:29:28;15.70;99.90
49829;DHT22;35723;51.194;5.112;2023-05-10T07:31:54;15.70;99.90
49829;DHT22;35723;51.194;5.112;2023-05-10T07:34:20;15.70;99.90
49829;DHT22;35723;51.194;5.112;2023-05-10T07:36:45;15.80;99.90
49829;DHT22;35723;51.194;5.112;2023-05-10T07:39:11;15.80;99.90
49829;DHT22;35723;51.194;5.112;2023-05-10T07:41:37;15.80;99.90
49829;DHT22;35723;51.194;5.112;2023-05-10T07:44:04;15.80;99.90
49829;DHT22;35723;51.194;5.112;2023-05-10T07:46:30;15.80;99.90
49829;DHT22;35723;51.194;5.112;2023-05-10T07:48:56;15.80;99.90
49829;DHT22;35723;51.194;5.112;2023-05-10T07:51:21;15.80;99.90
49829;DHT22;35723;51.194;5.112;2023-05-10T07:53:47;15.80;99.90
49829;DHT22;35723;51.194;5.112;2023-05-10T07:56:26;15.80;99.90
49829;DHT22;35723;51.194;5.112;2023-05-10T07:58:55;15.90;99.90
49829;DHT22;35723;51.194;5.112;2023-05-10T08:01:22;15.90;99.90
49829;DHT22;35723;51.194;5.112;2023-05-10T08:03:48;15.90;99.90
49829;DHT22;35723;51.194;5.112;2023-05-10T08:06:17;15.90;99.90
49829;DHT22;35723;51.194;5.112;2023-05-10T08:08:44;15.90;99.90
49829;DHT22;35723;51.194;5.112;2023-05-10T08:11:17;15.90;99.90
49829;DHT22;35723;51.194;5.112;2023-05-10T08:13:43;15.80;99.90
49829;DHT22;35723;51.194;5.112;2023-05-10T08:16:09;15.90;99.90
49829;DHT22;35723;51.194;5.112;2023-05-10T08:18:34;15.90;99.90
49829;DHT22;35723;51.194;5.112;2023-05-10T08:21:00;15.80;99.90
49829;DHT22;35723;51.194;5.112;2023-05-10T08:23:26;15.90;99.90
49829;DHT22;35723;51.194;5.112;2023-05-10T08:25:51;15.80;99.90
49829;DHT22;35723;51.194;5.112;2023-05-10T08:28:17;15.90;99.90
49829;DHT22;35723;51.194;5.112;2023-05-10T08:30:43;15.90;99.90
49829;DHT22;35723;51.194;5.112;2023-05-10T08:33:08;15.90;99.90
49829;DHT22;35723;51.194;5.112;2023-05-10T08:35:34;15.90;99.90
49829;DHT22;35723;51.194;5.112;2023-05-10T08:38:00;16.00;99.90
49829;DHT22;35723;51.194;5.112;2023-05-10T08:40:26;16.00;99.90
49829;DHT22;35723;51.194;5.112;2023-05-10T08:43:06;15.90;99.90
49829;DHT22;35723;51.194;5.112;2023-05-10T08:45:35;16.00;99.90
49829;DHT22;35723;51.194;5.112;2023-05-10T08:48:05;16.00;99.90
49829;DHT22;35723;51.194;5.112;2023-05-10T08:50:31;16.10;99.90
49829;DHT22;35723;51.194;5.112;2023-05-10T08:53:00;16.10;99.90
49829;DHT22;35723;51.194;5.112;2023-05-10T08:55:29;16.10;99.90
49829;DHT22;35723;51.194;5.112;2023-05-10T08:57:55;16.10;99.90
49829;DHT22;35723;51.194;5.112;2023-05-10T09:00:21;16.20;99.90
49829;DHT22;35723;51.194;5.112;2023-05-10T09:02:49;16.30;99.90
49829;DHT22;35723;51.194;5.112;2023-05-10T09:05:15;16.30;99.90
49829;DHT22;35723;51.194;5.112;2023-05-10T09:07:41;16.20;99.90
49829;DHT22;35723;51.194;5.112;2023-05-10T09:10:08;16.20;99.90
49829;DHT22;35723;51.194;5.112;2023-05-10T09:12:35;16.20;99.90
49829;DHT22;35723;51.194;5.112;2023-05-10T09:15:01;16.30;99.90
49829;DHT22;35723;51.194;5.112;2023-05-10T09:17:29;16.30;99.90
49829;DHT22;35723;51.194;5.112;2023-05-10T09:20:03;16.30;99.90
49829;DHT22;35723;51.194;5.112;2023-05-10T09:22:32;16.40;99.90
49829;DHT22;35723;51.194;5.112;2023-05-10T09:25:13;16.50;99.90
49829;DHT22;35723;51.194;5.112;2023-05-10T09:27:45;16.50;99.90
49829;DHT22;35723;51.194;5.112;2023-05-10T09:30:15;16.50;99.90
49829;DHT22;35723;51.194;5.112;2023-05-10T09:32:47;16.50;99.90
49829;DHT22;35723;51.194;5.112;2023-05-10T09:35:15;16.60;99.90
49829;DHT22;35723;51.194;5.112;2023-05-10T09:37:45;16.60;99.90
49829;DHT22;35723;51.194;5.112;2023-05-10T09:40:21;16.70;99.90
49829;DHT22;35723;51.194;5.112;2023-05-10T09:43:02;16.70;99.90
49829;DHT22;35723;51.194;5.112;2023-05-10T09:45:30;16.80;99.90
49829;DHT22;35723;51.194;5.112;2023-05-10T09:47:57;16.90;99.90
49829;DHT22;35723;51.194;5.112;2023-05-10T09:50:26;17.00;99.90
49829;DHT22;35723;51.194;5.112;2023-05-10T09:52:54;17.00;99.90
49829;DHT22;35723;51.194;5.112;2023-05-10T09:55:22;17.10;99.90
49829;DHT22;35723;51.194;5.112;2023-05-10T09:57:49;17.00;99.90
49829;DHT22;35723;51.194;5.112;2023-05-10T10:00:19;17.00;99.90
49829;DHT22;35723;51.194;5.112;2023-05-10T10:02:47;17.00;99.90
49829;DHT22;35723;51.194;5.112;2023-05-10T10:05:16;17.00;99.90
49829;DHT22;35723;51.194;5.112;2023-05-10T10:07:42;17.10;99.90
49829;DHT22;35723;51.194;5.112;2023-05-10T10:10:08;17.10;99.90
49829;DHT22;35723;51.194;5.112;2023-05-10T10:12:38;17.10;99.90
49829;DHT22;35723;51.194;5.112;2023-05-10T10:15:04;17.20;99.90
49829;DHT22;35723;51.194;5.112;2023-05-10T10:17:32;17.30;99.90
49829;DHT22;35723;51.194;5.112;2023-05-10T10:20:02;17.30;99.90
49829;DHT22;35723;51.194;5.112;2023-05-10T10:22:28;17.20;99.90
49829;DHT22;35723;51.194;5.112;2023-05-10T10:24:54;17.20;99.90
49829;DHT22;35723;51.194;5.112;2023-05-10T10:35:04;17.00;99.90
49829;DHT22;35723;51.194;5.112;2023-05-10T10:37:47;16.90;99.90
49829;DHT22;35723;51.194;5.112;2023-05-10T10:40:30;16.90;99.90
49829;DHT22;35723;51.194;5.112;2023-05-10T10:42:56;17.00;99.90
49829;DHT22;35723;51.194;5.112;2023-05-10T10:45:23;17.00;99.90
49829;DHT22;35723;51.194;5.112;2023-05-10T10:50:45;17.10;99.90
49829;DHT22;35723;51.194;5.112;2023-05-10T10:53:11;17.10;99.90
49829;DHT22;35723;51.194;5.112;2023-05-10T10:55:46;17.10;99.90
49829;DHT22;35723;51.194;5.112;2023-05-10T10:58:29;17.20;99.90
49829;DHT22;35723;51.194;5.112;2023-05-10T11:01:13;17.10;99.90
49829;DHT22;35723;51.194;5.112;2023-05-10T11:03:39;17.10;99.90
49829;DHT22;35723;51.194;5.112;2023-05-10T11:06:05;17.10;99.90
49829;DHT22;35723;51.194;5.112;2023-05-10T11:08:32;17.20;99.90
49829;DHT22;35723;51.194;5.112;2023-05-10T11:14:02;17.40;99.90
49829;DHT22;35723;51.194;5.112;2023-05-10T11:21:23;17.60;99.90
49829;DHT22;35723;51.194;5.112;2023-05-10T11:23:56;17.60;99.90
49829;DHT22;35723;51.194;5.112;2023-05-10T11:26:22;17.60;99.90
49829;DHT22;35723;51.194;5.112;2023-05-10T11:28:52;17.50;99.90
49829;DHT22;35723;51.194;5.112;2023-05-10T11:31:19;17.50;99.90
49829;DHT22;35723;51.194;5.112;2023-05-10T11:33:47;17.50;99.90
49829;DHT22;35723;51.194;5.112;2023-05-10T11:36:15;17.50;99.90
49829;DHT22;35723;51.194;5.112;2023-05-10T11:38:41;17.50;99.90
49829;DHT22;35723;51.194;5.112;2023-05-10T11:41:08;17.60;99.90
49829;DHT22;35723;51.194;5.112;2023-05-10T11:43:35;17.70;99.90
49829;DHT22;35723;51.194;5.112;2023-05-10T11:46:04;17.80;99.90
49829;DHT22;35723;51.194;5.112;2023-05-10T11:48:30;17.80;99.90
49829;DHT22;35723;51.194;5.112;2023-05-10T11:50:56;17.70;99.90
49829;DHT22;35723;51.194;5.112;2023-05-10T11:53:25;17.70;99.90
49829;DHT22;35723;51.194;5.112;2023-05-10T11:55:51;17.70;99.90
49829;DHT22;35723;51.194;5.112;2023-05-10T11:58:18;17.80;99.90
49829;DHT22;35723;51.194;5.112;2023-05-10T12:00:44;17.90;99.90
49829;DHT22;35723;51.194;5.112;2023-05-10T12:03:11;18.00;99.90
49829;DHT22;35723;51.194;5.112;2023-05-10T12:05:37;18.00;99.90
49829;DHT22;35723;51.194;5.112;2023-05-10T12:08:19;18.10;99.90
49829;DHT22;35723;51.194;5.112;2023-05-10T12:10:45;18.20;99.90
49829;DHT22;35723;51.194;5.112;2023-05-10T12:13:12;18.20;99.90
49829;DHT22;35723;51.194;5.112;2023-05-10T12:15:42;18.30;99.90
49829;DHT22;35723;51.194;5.112;2023-05-10T12:18:09;18.30;99.90
49829;DHT22;35723;51.194;5.112;2023-05-10T12:20:36;18.30;99.90
49829;DHT22;35723;51.194;5.112;2023-05-10T12:23:02;18.40;99.90
49829;DHT22;35723;51.194;5.112;2023-05-10T12:25:36;18.40;99.90
49829;DHT22;35723;51.194;5.112;2023-05-10T12:28:06;18.50;99.90
49829;DHT22;35723;51.194;5.112;2023-05-10T12:30:34;18.50;99.90
49829;DHT22;35723;51.194;5.112;2023-05-10T12:33:11;18.60;99.90
49829;DHT22;35723;51.194;5.112;2023-05-10T12:35:45;18.60;99.90
49829;DHT22;35723;51.194;5.112;2023-05-10T12:38:28;18.70;99.90
49829;DHT22;35723;51.194;5.112;2023-05-10T12:40:58;18.70;99.90
49829;DHT22;35723;51.194;5.112;2023-05-10T12:43:24;18.70;99.90
49829;DHT22;35723;51.194;5.112;2023-05-10T12:45:50;19.00;99.90
49829;DHT22;35723;51.194;5.112;2023-05-10T12:48:15;18.80;99.90
49829;DHT22;35723;51.194;5.112;2023-05-10T12:50:41;18.60;99.90
49829;DHT22;35723;51.194;5.112;2023-05-10T12:53:07;18.60;99.90
49829;DHT22;35723;51.194;5.112;2023-05-10T12:55:32;18.60;99.90
49829;DHT22;35723;51.194;5.112;2023-05-10T12:57:58;18.60;99.90
49829;DHT22;35723;51.194;5.112;2023-05-10T13:00:24;18.60;99.90
49829;DHT22;35723;51.194;5.112;2023-05-10T13:02:50;18.80;99.90
49829;DHT22;35723;51.194;5.112;2023-05-10T13:05:15;19.00;99.90
49829;DHT22;35723;51.194;5.112;2023-05-10T13:07:41;18.90;99.90
49829;DHT22;35723;51.194;5.112;2023-05-10T13:10:07;19.00;99.90
49829;DHT22;35723;51.194;5.112;2023-05-10T13:12:32;19.00;99.90
49829;DHT22;35723;51.194;5.112;2023-05-10T13:14:58;19.10;99.90
49829;DHT22;35723;51.194;5.112;2023-05-10T13:17:25;19.20;99.90
49829;DHT22;35723;51.194;5.112;2023-05-10T13:19:51;19.20;99.90
49829;DHT22;35723;51.194;5.112;2023-05-10T13:22:16;19.20;99.90
49829;DHT22;35723;51.194;5.112;2023-05-10T13:24:42;19.20;99.90
49829;DHT22;35723;51.194;5.112;2023-05-10T13:27:08;19.20;99.90
49829;DHT22;35723;51.194;5.112;2023-05-10T13:29:34;19.10;99.90
49829;DHT22;35723;51.194;5.112;2023-05-10T13:32:00;19.20;99.90
49829;DHT22;35723;51.194;5.112;2023-05-10T13:34:26;19.30;99.90
49829;DHT22;35723;51.194;5.112;2023-05-10T13:36:51;19.40;99.90
49829;DHT22;35723;51.194;5.112;2023-05-10T13:39:18;19.50;99.90
49829;DHT22;35723;51.194;5.112;2023-05-10T13:41:43;19.50;99.90
49829;DHT22;35723;51.194;5.112;2023-05-10T13:44:11;19.60;99.90
49829;DHT22;35723;51.194;5.112;2023-05-10T13:46:37;19.60;99.90
49829;DHT22;35723;51.194;5.112;2023-05-10T13:49:04;19.70;99.90
49829;DHT22;35723;51.194;5.112;2023-05-10T13:51:29;19.70;99.90
49829;DHT22;35723;51.194;5.112;2023-05-10T13:53:57;19.70;99.90
49829;DHT22;35723;51.194;5.112;2023-05-10T13:56:23;19.70;99.90
49829;DHT22;35723;51.194;5.112;2023-05-10T13:58:48;19.60;99.90
49829;DHT22;35723;51.194;5.112;2023-05-10T14:01:14;19.60;99.90
49829;DHT22;35723;51.194;5.112;2023-05-10T14:03:40;19.60;99.90
49829;DHT22;35723;51.194;5.112;2023-05-10T14:06:06;19.70;99.90
49829;DHT22;35723;51.194;5.112;2023-05-10T14:08:33;19.80;99.90
49829;DHT22;35723;51.194;5.112;2023-05-10T14:10:59;19.80;99.90
49829;DHT22;35723;51.194;5.112;2023-05-10T14:13:25;19.80;99.90
49829;DHT22;35723;51.194;5.112;2023-05-10T14:15:52;19.90;99.90
49829;DHT22;35723;51.194;5.112;2023-05-10T14:18:17;19.90;99.90
49829;DHT22;35723;51.194;5.112;2023-05-10T14:20:43;19.90;99.90
49829;DHT22;35723;51.194;5.112;2023-05-10T14:23:09;20.00;99.90
49829;DHT22;35723;51.194;5.112;2023-05-10T14:25:34;20.00;99.90
49829;DHT22;35723;51.194;5.112;2023-05-10T14:28:00;20.00;99.90
49829;DHT22;35723;51.194;5.112;2023-05-10T14:30:26;20.00;99.90
49829;DHT22;35723;51.194;5.112;2023-05-10T14:32:51;19.90;99.90
49829;DHT22;35723;51.194;5.112;2023-05-10T14:35:19;20.00;99.90
49829;DHT22;35723;51.194;5.112;2023-05-10T14:37:45;20.10;99.90
49829;DHT22;35723;51.194;5.112;2023-05-10T14:40:11;20.10;99.90
49829;DHT22;35723;51.194;5.112;2023-05-10T14:42:37;20.00;99.90
49829;DHT22;35723;51.194;5.112;2023-05-10T14:45:04;20.00;99.90
49829;DHT22;35723;51.194;5.112;2023-05-10T14:47:29;20.10;99.90
49829;DHT22;35723;51.194;5.112;2023-05-10T14:49:55;20.00;99.90
49829;DHT22;35723;51.194;5.112;2023-05-10T14:52:21;20.10;99.90
49829;DHT22;35723;51.194;5.112;2023-05-10T14:54:46;20.20;99.90
49829;DHT22;35723;51.194;5.112;2023-05-10T14:57:12;20.20;99.90
49829;DHT22;35723;51.194;5.112;2023-05-10T14:59:38;20.20;99.90
49829;DHT22;35723;51.194;5.112;2023-05-10T15:02:05;20.00;99.90
49829;DHT22;35723;51.194;5.112;2023-05-10T15:04:31;20.00;99.90
49829;DHT22;35723;51.194;5.112;2023-05-10T15:06:56;20.00;99.90
49829;DHT22;35723;51.194;5.112;2023-05-10T15:09:24;20.00;99.90
49829;DHT22;35723;51.194;5.112;2023-05-10T15:11:50;20.00;99.90
49829;DHT22;35723;51.194;5.112;2023-05-10T15:14:16;20.00;99.90
49829;DHT22;35723;51.194;5.112;2023-05-10T15:16:42;20.00;99.90
49829;DHT22;35723;51.194;5.112;2023-05-10T15:19:07;20.00;99.90
49829;DHT22;35723;51.194;5.112;2023-05-10T15:21:33;20.00;99.90
49829;DHT22;35723;51.194;5.112;2023-05-10T15:24:05;20.00;99.90
49829;DHT22;35723;51.194;5.112;2023-05-10T15:26:30;20.10;99.90
49829;DHT22;35723;51.194;5.112;2023-05-10T15:28:56;20.00;99.90
49829;DHT22;35723;51.194;5.112;2023-05-10T15:31:22;19.90;99.90
49829;DHT22;35723;51.194;5.112;2023-05-10T15:33:48;19.90;99.90
49829;DHT22;35723;51.194;5.112;2023-05-10T15:36:13;19.90;99.90
49829;DHT22;35723;51.194;5.112;2023-05-10T15:38:39;19.90;99.90
49829;DHT22;35723;51.194;5.112;2023-05-10T15:41:04;19.80;99.90
49829;DHT22;35723;51.194;5.112;2023-05-10T15:43:30;19.80;99.90
49829;DHT22;35723;51.194;5.112;2023-05-10T15:45:56;19.80;99.90
49829;DHT22;35723;51.194;5.112;2023-05-10T15:48:22;19.70;99.90
49829;DHT22;35723;51.194;5.112;2023-05-10T15:50:47;19.80;99.90
49829;DHT22;35723;51.194;5.112;2023-05-10T15:53:13;19.80;99.90
49829;DHT22;35723;51.194;5.112;2023-05-10T15:55:39;19.70;99.90
49829;DHT22;35723;51.194;5.112;2023-05-10T15:58:04;19.70;99.90
49829;DHT22;35723;51.194;5.112;2023-05-10T16:00:30;19.80;99.90
49829;DHT22;35723;51.194;5.112;2023-05-10T16:02:56;19.60;99.90